sensor_id;sensor_type;location;lat;lon;timestamp;temperature;humidity
52849;DHT22;38714;53.180;5.812;2022-07-24T00:01:59;17.70;99.90
52849;DHT22;38714;53.180;5.812;2022-07-24T00:04:25;17.70;99.90
52849;DHT22;38714;53.180;5.812;2022-07-24T00:06:50;17.70;99.90
52849;DHT22;38714;53.180;5.812;2022-07-24T00:09:16;17.70;99.90
52849;DHT22;38714;53.180;5.812;2022-07-24T00:11:42;17.70;99.90
52849;DHT22;38714;53.180;5.812;2022-07-24T00:14:08;17.60;99.90
52849;DHT22;38714;53.180;5.812;2022-07-24T00:16:34;17.60;99.90
52849;DHT22;38714;53.180;5.812;2022-07-24T00:18:59;17.60;99.90
52849;DHT22;38714;53.180;5.812;2022-07-24T00:21:25;17.50;99.90
52849;DHT22;38714;53.180;5.812;2022-07-24T00:23:50;17.50;99.90
52849;DHT22;38714;53.180;5.812;2022-07-24T00:26:16;17.50;99.90
52849;DHT22;38714;53.180;5.812;2022-07-24T00:28:42;17.50;99.90
52849;DHT22;38714;53.180;5.812;2022-07-24T00:31:07;17.50;99.90
52849;DHT22;38714;53.180;5.812;2022-07-24T00:33:33;17.40;99.90
52849;DHT22;38714;53.180;5.812;2022-07-24T00:35:59;17.40;99.90
52849;DHT22;38714;53.180;5.812;2022-07-24T00:38:25;17.40;99.90
52849;DHT22;38714;53.180;5.812;2022-07-24T00:40:50;17.40;99.90
52849;DHT22;38714;53.180;5.812;2022-07-24T00:43:16;17.40;99.90
52849;DHT22;38714;53.180;5.812;2022-07-24T00:45:43;17.40;99.90
52849;DHT22;38714;53.180;5.812;2022-07-24T00:48:09;17.30;99.90
52849;DHT22;38714;53.180;5.812;2022-07-24T00:50:35;17.30;99.90
52849;DHT22;38714;53.180;5.812;2022-07-24T00:53:00;17.30;99.90
52849;DHT22;38714;53.180;5.812;2022-07-24T00:55:27;17.30;99.90
52849;DHT22;38714;53.180;5.812;2022-07-24T00:57:53;17.20;99.90
52849;DHT22;38714;53.180;5.812;2022-07-24T01:00:20;17.20;99.90
52849;DHT22;38714;53.180;5.812;2022-07-24T01:02:47;17.20;99.90
52849;DHT22;38714;53.180;5.812;2022-07-24T01:05:12;17.10;99.90
52849;DHT22;38714;53.180;5.812;2022-07-24T01:07:39;17.10;99.90
52849;DHT22;38714;53.180;5.812;2022-07-24T01:10:06;17.10;99.90
52849;DHT22;38714;53.180;5.812;2022-07-24T01:12:33;17.10;99.90
52849;DHT22;38714;53.180;5.812;2022-07-24T01:14:59;17.10;99.90
52849;DHT22;38714;53.180;5.812;2022-07-24T01:17:30;17.10;99.90
52849;DHT22;38714;53.180;5.812;2022-07-24T01:19:56;17.10;99.90
52849;DHT22;38714;53.180;5.812;2022-07-24T01:22:22;17.10;99.90
52849;DHT22;38714;53.180;5.812;2022-07-24T01:24:48;17.00;99.90
52849;DHT22;38714;53.180;5.812;2022-07-24T01:27:14;17.00;99.90
52849;DHT22;38714;53.180;5.812;2022-07-24T01:29:39;17.00;99.90
52849;DHT22;38714;53.180;5.812;2022-07-24T01:32:05;17.00;99.90
52849;DHT22;38714;53.180;5.812;2022-07-24T01:34:31;17.00;99.90
52849;DHT22;38714;53.180;5.812;2022-07-24T01:36:56;17.00;99.90
52849;DHT22;38714;53.180;5.812;2022-07-24T01:39:22;17.00;99.90
52849;DHT22;38714;53.180;5.812;2022-07-24T01:41:47;16.90;99.90
52849;DHT22;38714;53.180;5.812;2022-07-24T01:44:13;16.90;99.90
52849;DHT22;38714;53.180;5.812;2022-07-24T01:46:39;16.90;99.90
52849;DHT22;38714;53.180;5.812;2022-07-24T01:49:04;16.90;99.90
52849;DHT22;38714;53.180;5.812;2022-07-24T01:51:30;16.90;99.90
52849;DHT22;38714;53.180;5.812;2022-07-24T01:53:55;16.90;99.90
52849;DHT22;38714;53.180;5.812;2022-07-24T01:56:21;16.90;99.90
52849;DHT22;38714;53.180;5.812;2022-07-24T01:58:47;16.80;99.90
52849;DHT22;38714;53.180;5.812;2022-07-24T02:01:12;16.80;99.90
52849;DHT22;38714;53.180;5.812;2022-07-24T02:03:38;16.80;99.90
52849;DHT22;38714;53.180;5.812;2022-07-24T02:06:04;16.80;99.90
52849;DHT22;38714;53.180;5.812;2022-07-24T02:08:30;16.80;99.90
52849;DHT22;38714;53.180;5.812;2022-07-24T02:10:55;16.80;99.90
52849;DHT22;38714;53.180;5.812;2022-07-24T02:13:21;16.80;99.90
52849;DHT22;38714;53.180;5.812;2022-07-24T02:15:46;16.80;99.90
52849;DHT22;38714;53.180;5.812;2022-07-24T02:18:12;16.80;99.90
52849;DHT22;38714;53.180;5.812;2022-07-24T02:20:38;16.70;99.90
52849;DHT22;38714;53.180;5.812;2022-07-24T02:23:04;16.70;99.90
52849;DHT22;38714;53.180;5.812;2022-07-24T02:25:29;16.70;99.90
52849;DHT22;38714;53.180;5.812;2022-07-24T02:27:55;16.70;99.90
52849;DHT22;38714;53.180;5.812;2022-07-24T02:30:23;16.70;99.90
52849;DHT22;38714;53.180;5.812;2022-07-24T02:32:49;16.70;99.90
52849;DHT22;38714;53.180;5.812;2022-07-24T02:35:15;16.70;99.90
52849;DHT22;38714;53.180;5.812;2022-07-24T02:37:44;16.70;99.90
52849;DHT22;38714;53.180;5.812;2022-07-24T02:40:10;16.70;99.90
52849;DHT22;38714;53.180;5.812;2022-07-24T02:42:37;16.70;99.90
52849;DHT22;38714;53.180;5.812;2022-07-24T02:45:05;16.70;99.90
52849;DHT22;38714;53.180;5.812;2022-07-24T02:47:31;16.70;99.90
52849;DHT22;38714;53.180;5.812;2022-07-24T02:49:56;16.70;99.90
52849;DHT22;38714;53.180;5.812;2022-07-24T02:52:22;16.70;99.90
52849;DHT22;38714;53.180;5.812;2022-07-24T02:54:48;16.70;99.90
52849;DHT22;38714;53.180;5.812;2022-07-24T02:57:13;16.70;99.90
52849;DHT22;38714;53.180;5.812;2022-07-24T02:59:39;16.70;99.90
52849;DHT22;38714;53.180;5.812;2022-07-24T03:02:04;16.70;99.90
52849;DHT22;38714;53.180;5.812;2022-07-24T03:04:31;16.60;99.90
52849;DHT22;38714;53.180;5.812;2022-07-24T03:06:57;16.70;99.90
52849;DHT22;38714;53.180;5.812;2022-07-24T03:09:22;16.60;99.90
52849;DHT22;38714;53.180;5.812;2022-07-24T03:11:48;16.70;99.90
52849;DHT22;38714;53.180;5.812;2022-07-24T03:14:13;16.60;99.90
52849;DHT22;38714;53.180;5.812;2022-07-24T03:16:39;16.60;99.90
52849;DHT22;38714;53.180;5.812;2022-07-24T03:19:05;16.60;99.90
52849;DHT22;38714;53.180;5.812;2022-07-24T03:21:30;16.60;99.90
52849;DHT22;38714;53.180;5.812;2022-07-24T03:23:56;16.60;99.90
52849;DHT22;38714;53.180;5.812;2022-07-24T03:26:22;16.60;99.90
52849;DHT22;38714;53.180;5.812;2022-07-24T03:28:47;16.60;99.90
52849;DHT22;38714;53.180;5.812;2022-07-24T03:31:13;16.60;99.90
52849;DHT22;38714;53.180;5.812;2022-07-24T03:33:38;16.60;99.90
52849;DHT22;38714;53.180;5.812;2022-07-24T03:36:04;16.60;99.90
52849;DHT22;38714;53.180;5.812;2022-07-24T03:38:30;16.60;99.90
52849;DHT22;38714;53.180;5.812;2022-07-24T03:40:55;16.60;99.90
52849;DHT22;38714;53.180;5.812;2022-07-24T03:43:21;16.60;99.90
52849;DHT22;38714;53.180;5.812;2022-07-24T03:45:47;16.60;99.90
52849;DHT22;38714;53.180;5.812;2022-07-24T03:48:12;16.60;99.90
52849;DHT22;38714;53.180;5.812;2022-07-24T03:50:38;16.50;99.90
52849;DHT22;38714;53.180;5.812;2022-07-24T03:53:03;16.50;99.90
52849;DHT22;38714;53.180;5.812;2022-07-24T03:55:29;16.50;99.90
52849;DHT22;38714;53.180;5.812;2022-07-24T03:57:54;16.50;99.90
52849;DHT22;38714;53.180;5.812;2022-07-24T04:00:20;16.50;99.90
52849;DHT22;38714;53.180;5.812;2022-07-24T04:02:46;16.50;99.90
52849;DHT22;38714;53.180;5.812;2022-07-24T04:05:11;16.50;99.90
52849;DHT22;38714;53.180;5.812;2022-07-24T04:07:39;16.50;99.90
52849;DHT22;38714;53.180;5.812;2022-07-24T04:10:06;16.50;99.90
52849;DHT22;38714;53.180;5.812;2022-07-24T04:12:32;16.50;99.90
52849;DHT22;38714;53.180;5.812;2022-07-24T04:14:57;16.50;99.90
52849;DHT22;38714;53.180;5.812;2022-07-24T04:17:23;16.50;99.90
52849;DHT22;38714;53.180;5.812;2022-07-24T04:19:49;16.50;99.90
52849;DHT22;38714;53.180;5.812;2022-07-24T04:22:14;16.50;99.90
52849;DHT22;38714;53.180;5.812;2022-07-24T04:24:40;16.50;99.90
52849;DHT22;38714;53.180;5.812;2022-07-24T04:27:06;16.50;99.90
52849;DHT22;38714;53.180;5.812;2022-07-24T04:29:31;16.50;99.90
52849;DHT22;38714;53.180;5.812;2022-07-24T04:31:57;16.50;99.90
52849;DHT22;38714;53.180;5.812;2022-07-24T04:34:22;16.50;99.90
52849;DHT22;38714;53.180;5.812;2022-07-24T04:36:48;16.50;99.90
52849;DHT22;38714;53.180;5.812;2022-07-24T04:39:14;16.60;99.90
52849;DHT22;38714;53.180;5.812;2022-07-24T04:41:40;16.60;99.90
52849;DHT22;38714;53.180;5.812;2022-07-24T04:44:05;16.60;99.90
52849;DHT22;38714;53.180;5.812;2022-07-24T04:46:31;16.60;99.90
52849;DHT22;38714;53.180;5.812;2022-07-24T04:48:57;16.60;99.90
52849;DHT22;38714;53.180;5.812;2022-07-24T04:51:22;16.60;99.90
52849;DHT22;38714;53.180;5.812;2022-07-24T04:53:48;16.60;99.90
52849;DHT22;38714;53.180;5.812;2022-07-24T04:56:14;16.60;99.90
52849;DHT22;38714;53.180;5.812;2022-07-24T04:58:40;16.60;99.90
52849;DHT22;38714;53.180;5.812;2022-07-24T05:01:05;16.60;99.90
52849;DHT22;38714;53.180;5.812;2022-07-24T05:03:31;16.60;99.90
52849;DHT22;38714;53.180;5.812;2022-07-24T05:05:57;16.60;99.90
52849;DHT22;38714;53.180;5.812;2022-07-24T05:08:22;16.70;99.90
52849;DHT22;38714;53.180;5.812;2022-07-24T05:10:48;16.70;99.90
52849;DHT22;38714;53.180;5.812;2022-07-24T05:13:13;16.70;99.90
52849;DHT22;38714;53.180;5.812;2022-07-24T05:15:39;16.70;99.90
52849;DHT22;38714;53.180;5.812;2022-07-24T05:18:04;16.70;99.90
52849;DHT22;38714;53.180;5.812;2022-07-24T05:20:30;16.70;99.90
52849;DHT22;38714;53.180;5.812;2022-07-24T05:22:55;16.70;99.90
52849;DHT22;38714;53.180;5.812;2022-07-24T05:25:21;16.70;99.90
52849;DHT22;38714;53.180;5.812;2022-07-24T05:27:47;16.70;99.90
52849;DHT22;38714;53.180;5.812;2022-07-24T05:30:12;16.80;99.90
52849;DHT22;38714;53.180;5.812;2022-07-24T05:32:38;16.90;99.90
52849;DHT22;38714;53.180;5.812;2022-07-24T05:35:04;16.90;99.90
52849;DHT22;38714;53.180;5.812;2022-07-24T05:37:30;17.00;99.90
52849;DHT22;38714;53.180;5.812;2022-07-24T05:39:55;17.00;99.90
52849;DHT22;38714;53.180;5.812;2022-07-24T05:42:21;17.10;99.90
52849;DHT22;38714;53.180;5.812;2022-07-24T05:44:46;17.10;99.90
52849;DHT22;38714;53.180;5.812;2022-07-24T05:47:12;17.20;99.90
52849;DHT22;38714;53.180;5.812;2022-07-24T05:49:38;17.20;99.90
52849;DHT22;38714;53.180;5.812;2022-07-24T05:52:03;17.20;99.90
52849;DHT22;38714;53.180;5.812;2022-07-24T05:54:29;17.20;99.90
52849;DHT22;38714;53.180;5.812;2022-07-24T05:56:55;17.30;99.90
52849;DHT22;38714;53.180;5.812;2022-07-24T05:59:20;17.20;99.90
52849;DHT22;38714;53.180;5.812;2022-07-24T06:01:46;17.20;99.90
52849;DHT22;38714;53.180;5.812;2022-07-24T06:04:11;17.30;99.90
52849;DHT22;38714;53.180;5.812;2022-07-24T06:06:37;17.30;99.90
52849;DHT22;38714;53.180;5.812;2022-07-24T06:09:03;17.30;99.90
52849;DHT22;38714;53.180;5.812;2022-07-24T06:11:29;17.40;99.90
52849;DHT22;38714;53.180;5.812;2022-07-24T06:13:55;17.40;99.90
52849;DHT22;38714;53.180;5.812;2022-07-24T06:16:21;17.40;99.90
52849;DHT22;38714;53.180;5.812;2022-07-24T06:18:46;17.50;99.90
52849;DHT22;38714;53.180;5.812;2022-07-24T06:21:12;17.50;99.90
52849;DHT22;38714;53.180;5.812;2022-07-24T06:23:37;17.60;99.90
52849;DHT22;38714;53.180;5.812;2022-07-24T06:26:03;17.60;99.90
52849;DHT22;38714;53.180;5.812;2022-07-24T06:28:29;17.70;99.90
52849;DHT22;38714;53.180;5.812;2022-07-24T06:30:54;17.80;99.90
52849;DHT22;38714;53.180;5.812;2022-07-24T06:33:20;17.90;99.90
52849;DHT22;38714;53.180;5.812;2022-07-24T06:35:45;17.90;99.90
52849;DHT22;38714;53.180;5.812;2022-07-24T06:38:11;18.00;99.90
52849;DHT22;38714;53.180;5.812;2022-07-24T06:40:37;18.10;99.90
52849;DHT22;38714;53.180;5.812;2022-07-24T06:43:04;18.10;99.90
52849;DHT22;38714;53.180;5.812;2022-07-24T06:45:30;18.20;99.90
52849;DHT22;38714;53.180;5.812;2022-07-24T06:47:59;18.20;99.90
52849;DHT22;38714;53.180;5.812;2022-07-24T06:50:26;18.30;99.90
52849;DHT22;38714;53.180;5.812;2022-07-24T06:52:51;18.40;99.90
52849;DHT22;38714;53.180;5.812;2022-07-24T06:55:17;18.50;99.90
52849;DHT22;38714;53.180;5.812;2022-07-24T06:57:42;18.60;99.90
52849;DHT22;38714;53.180;5.812;2022-07-24T07:00:09;18.60;99.90
52849;DHT22;38714;53.180;5.812;2022-07-24T07:02:35;18.60;99.90
52849;DHT22;38714;53.180;5.812;2022-07-24T07:05:01;18.60;99.90
52849;DHT22;38714;53.180;5.812;2022-07-24T07:07:27;18.60;99.90
52849;DHT22;38714;53.180;5.812;2022-07-24T07:09:53;18.60;99.90
52849;DHT22;38714;53.180;5.812;2022-07-24T07:12:19;18.60;99.90
52849;DHT22;38714;53.180;5.812;2022-07-24T07:14:44;18.70;99.90
52849;DHT22;38714;53.180;5.812;2022-07-24T07:17:10;18.70;99.90
52849;DHT22;38714;53.180;5.812;2022-07-24T07:19:36;18.70;99.90
52849;DHT22;38714;53.180;5.812;2022-07-24T07:22:01;18.70;99.90
52849;DHT22;38714;53.180;5.812;2022-07-24T07:24:27;18.80;99.90
52849;DHT22;38714;53.180;5.812;2022-07-24T07:26:52;18.80;99.90
52849;DHT22;38714;53.180;5.812;2022-07-24T07:29:18;18.80;99.90
52849;DHT22;38714;53.180;5.812;2022-07-24T07:31:43;18.80;99.90
52849;DHT22;38714;53.180;5.812;2022-07-24T07:34:09;18.80;99.90
52849;DHT22;38714;53.180;5.812;2022-07-24T07:36:34;18.90;99.90
52849;DHT22;38714;53.180;5.812;2022-07-24T07:39:00;18.90;99.90
52849;DHT22;38714;53.180;5.812;2022-07-24T07:41:26;18.90;99.90
52849;DHT22;38714;53.180;5.812;2022-07-24T07:43:52;19.00;99.90
52849;DHT22;38714;53.180;5.812;2022-07-24T07:46:18;19.00;99.90
52849;DHT22;38714;53.180;5.812;2022-07-24T07:48:44;19.00;99.90
52849;DHT22;38714;53.180;5.812;2022-07-24T07:51:10;19.00;99.90
52849;DHT22;38714;53.180;5.812;2022-07-24T07:53:36;19.00;99.90
52849;DHT22;38714;53.180;5.812;2022-07-24T07:56:01;19.00;99.90
52849;DHT22;38714;53.180;5.812;2022-07-24T07:58:27;19.10;99.90
52849;DHT22;38714;53.180;5.812;2022-07-24T08:00:53;19.10;99.90
52849;DHT22;38714;53.180;5.812;2022-07-24T08:03:19;19.10;99.90
52849;DHT22;38714;53.180;5.812;2022-07-24T08:05:44;19.10;99.90
52849;DHT22;38714;53.180;5.812;2022-07-24T08:08:10;19.10;99.90
52849;DHT22;38714;53.180;5.812;2022-07-24T08:10:36;19.20;99.90
52849;DHT22;38714;53.180;5.812;2022-07-24T08:13:01;19.20;99.90
52849;DHT22;38714;53.180;5.812;2022-07-24T08:15:27;19.30;99.90
52849;DHT22;38714;53.180;5.812;2022-07-24T08:17:57;19.30;99.90
52849;DHT22;38714;53.180;5.812;2022-07-24T08:20:23;19.30;99.90
52849;DHT22;38714;53.180;5.812;2022-07-24T08:22:50;19.30;99.90
52849;DHT22;38714;53.180;5.812;2022-07-24T08:25:16;19.40;99.90
52849;DHT22;38714;53.180;5.812;2022-07-24T08:27:42;19.40;99.90
52849;DHT22;38714;53.180;5.812;2022-07-24T08:30:09;19.40;99.90
52849;DHT22;38714;53.180;5.812;2022-07-24T08:32:35;19.50;99.90
52849;DHT22;38714;53.180;5.812;2022-07-24T08:35:01;19.60;99.90
52849;DHT22;38714;53.180;5.812;2022-07-24T08:37:26;19.60;99.90
52849;DHT22;38714;53.180;5.812;2022-07-24T08:39:52;19.70;99.90
52849;DHT22;38714;53.180;5.812;2022-07-24T08:42:20;19.80;99.90
52849;DHT22;38714;53.180;5.812;2022-07-24T08:44:46;19.80;99.90
52849;DHT22;38714;53.180;5.812;2022-07-24T08:47:14;19.90;99.90
52849;DHT22;38714;53.180;5.812;2022-07-24T08:49:40;20.00;99.90
52849;DHT22;38714;53.180;5.812;2022-07-24T08:52:06;20.00;99.90
52849;DHT22;38714;53.180;5.812;2022-07-24T08:54:34;20.10;99.90
52849;DHT22;38714;53.180;5.812;2022-07-24T08:57:01;20.10;99.90
52849;DHT22;38714;53.180;5.812;2022-07-24T08:59:27;20.10;99.90
52849;DHT22;38714;53.180;5.812;2022-07-24T09:01:53;20.20;99.90
52849;DHT22;38714;53.180;5.812;2022-07-24T09:06:58;20.30;99.90
52849;DHT22;38714;53.180;5.812;2022-07-24T09:09:24;20.30;99.90
52849;DHT22;38714;53.180;5.812;2022-07-24T09:11:49;20.40;99.90
52849;DHT22;38714;53.180;5.812;2022-07-24T09:14:16;20.40;99.90
52849;DHT22;38714;53.180;5.812;2022-07-24T09:17:05;20.40;99.90
52849;DHT22;38714;53.180;5.812;2022-07-24T09:19:33;20.50;99.90
52849;DHT22;38714;53.180;5.812;2022-07-24T09:22:10;20.60;99.90
52849;DHT22;38714;53.180;5.812;2022-07-24T09:24:41;20.60;99.90
52849;DHT22;38714;53.180;5.812;2022-07-24T09:27:13;20.60;99.90
52849;DHT22;38714;53.180;5.812;2022-07-24T09:29:39;20.60;99.90
52849;DHT22;38714;53.180;5.812;2022-07-24T09:32:05;20.60;99.90
52849;DHT22;38714;53.180;5.812;2022-07-24T09:34:38;20.60;99.90
52849;DHT22;38714;53.180;5.812;2022-07-24T09:37:08;20.70;99.90
52849;DHT22;38714;53.180;5.812;2022-07-24T09:39:36;20.70;99.90
52849;DHT22;38714;53.180;5.812;2022-07-24T09:42:04;20.80;99.90
52849;DHT22;38714;53.180;5.812;2022-07-24T09:44:30;20.80;99.90
52849;DHT22;38714;53.180;5.812;2022-07-24T09:46:56;20.80;99.90
52849;DHT22;38714;53.180;5.812;2022-07-24T09:49:22;20.90;99.90
52849;DHT22;38714;53.180;5.812;2022-07-24T09:52:13;20.90;99.90
52849;DHT22;38714;53.180;5.812;2022-07-24T09:54:45;21.00;99.90
52849;DHT22;38714;53.180;5.812;2022-07-24T09:57:25;21.10;99.90
52849;DHT22;38714;53.180;5.812;2022-07-24T09:59:54;21.20;99.90
52849;DHT22;38714;53.180;5.812;2022-07-24T10:02:22;21.30;99.90
52849;DHT22;38714;53.180;5.812;2022-07-24T10:04:50;21.30;99.90
52849;DHT22;38714;53.180;5.812;2022-07-24T10:07:18;21.40;99.90
52849;DHT22;38714;53.180;5.812;2022-07-24T10:09:47;21.40;99.90
52849;DHT22;38714;53.180;5.812;2022-07-24T10:12:18;21.40;99.90
52849;DHT22;38714;53.180;5.812;2022-07-24T10:14:45;21.40;99.90
52849;DHT22;38714;53.180;5.812;2022-07-24T10:17:12;21.40;99.90
52849;DHT22;38714;53.180;5.812;2022-07-24T10:22:14;21.40;99.90
52849;DHT22;38714;53.180;5.812;2022-07-24T10:27:26;21.50;99.90
52849;DHT22;38714;53.180;5.812;2022-07-24T10:29:54;21.50;99.90
52849;DHT22;38714;53.180;5.812;2022-07-24T10:32:20;21.50;99.90
52849;DHT22;38714;53.180;5.812;2022-07-24T10:37:27;21.60;99.90
52849;DHT22;38714;53.180;5.812;2022-07-24T10:42:28;21.60;99.90
52849;DHT22;38714;53.180;5.812;2022-07-24T10:45:17;21.60;99.90
52849;DHT22;38714;53.180;5.812;2022-07-24T10:47:43;21.60;99.90
52849;DHT22;38714;53.180;5.812;2022-07-24T10:50:09;21.70;99.90
52849;DHT22;38714;53.180;5.812;2022-07-24T10:52:35;21.70;99.90
52849;DHT22;38714;53.180;5.812;2022-07-24T10:55:28;21.70;99.90
52849;DHT22;38714;53.180;5.812;2022-07-24T11:00:35;21.80;99.90
52849;DHT22;38714;53.180;5.812;2022-07-24T11:03:29;21.70;99.90
52849;DHT22;38714;53.180;5.812;2022-07-24T11:06:11;21.80;99.90
52849;DHT22;38714;53.180;5.812;2022-07-24T11:08:49;21.80;99.90
52849;DHT22;38714;53.180;5.812;2022-07-24T11:11:19;21.80;99.90
52849;DHT22;38714;53.180;5.812;2022-07-24T11:13:51;21.80;99.90
52849;DHT22;38714;53.180;5.812;2022-07-24T11:21:34;21.90;99.90
52849;DHT22;38714;53.180;5.812;2022-07-24T11:27:06;22.00;99.90
52849;DHT22;38714;53.180;5.812;2022-07-24T11:29:36;22.00;99.90
52849;DHT22;38714;53.180;5.812;2022-07-24T11:32:10;22.00;99.90
52849;DHT22;38714;53.180;5.812;2022-07-24T11:34:38;22.00;99.90
52849;DHT22;38714;53.180;5.812;2022-07-24T11:37:07;22.00;99.90
52849;DHT22;38714;53.180;5.812;2022-07-24T11:39:38;21.90;99.90
52849;DHT22;38714;53.180;5.812;2022-07-24T11:42:09;21.90;99.90
52849;DHT22;38714;53.180;5.812;2022-07-24T11:44:38;21.90;99.90
52849;DHT22;38714;53.180;5.812;2022-07-24T11:47:20;21.90;99.90
52849;DHT22;38714;53.180;5.812;2022-07-24T11:49:51;22.00;99.90
52849;DHT22;38714;53.180;5.812;2022-07-24T11:52:39;22.10;99.90
52849;DHT22;38714;53.180;5.812;2022-07-24T11:55:13;22.10;99.90
52849;DHT22;38714;53.180;5.812;2022-07-24T11:57:41;22.10;99.90
52849;DHT22;38714;53.180;5.812;2022-07-24T12:00:12;22.10;99.90
52849;DHT22;38714;53.180;5.812;2022-07-24T12:02:50;22.20;99.90
52849;DHT22;38714;53.180;5.812;2022-07-24T12:05:38;22.20;99.90
52849;DHT22;38714;53.180;5.812;2022-07-24T12:08:20;22.20;99.90
52849;DHT22;38714;53.180;5.812;2022-07-24T12:10:46;22.20;99.90
52849;DHT22;38714;53.180;5.812;2022-07-24T12:13:15;22.20;99.90
52849;DHT22;38714;53.180;5.812;2022-07-24T12:15:41;22.30;99.90
52849;DHT22;38714;53.180;5.812;2022-07-24T12:18:08;22.30;99.90
52849;DHT22;38714;53.180;5.812;2022-07-24T12:20:40;22.30;99.90
52849;DHT22;38714;53.180;5.812;2022-07-24T12:23:08;22.40;99.90
52849;DHT22;38714;53.180;5.812;2022-07-24T12:25:35;22.40;99.90
52849;DHT22;38714;53.180;5.812;2022-07-24T12:28:03;22.40;99.90
52849;DHT22;38714;53.180;5.812;2022-07-24T12:30:31;22.50;99.90
52849;DHT22;38714;53.180;5.812;2022-07-24T12:33:01;22.50;99.90
52849;DHT22;38714;53.180;5.812;2022-07-24T12:35:29;22.50;99.90
52849;DHT22;38714;53.180;5.812;2022-07-24T12:37:57;22.50;99.90
52849;DHT22;38714;53.180;5.812;2022-07-24T12:40:28;22.50;99.90
52849;DHT22;38714;53.180;5.812;2022-07-24T12:42:59;22.50;99.90
52849;DHT22;38714;53.180;5.812;2022-07-24T12:45:25;22.60;99.90
52849;DHT22;38714;53.180;5.812;2022-07-24T12:50:37;22.60;99.90
52849;DHT22;38714;53.180;5.812;2022-07-24T12:53:04;22.60;99.90
52849;DHT22;38714;53.180;5.812;2022-07-24T12:55:30;22.60;99.90
52849;DHT22;38714;53.180;5.812;2022-07-24T12:58:03;22.60;99.90
52849;DHT22;38714;53.180;5.812;2022-07-24T13:00:29;22.60;99.90
52849;DHT22;38714;53.180;5.812;2022-07-24T13:02:56;22.60;99.90
52849;DHT22;38714;53.180;5.812;2022-07-24T13:05:41;22.60;99.90
52849;DHT22;38714;53.180;5.812;2022-07-24T13:08:07;22.60;99.90
52849;DHT22;38714;53.180;5.812;2022-07-24T13:10:36;22.70;99.90
52849;DHT22;38714;53.180;5.812;2022-07-24T13:13:02;22.80;99.90
52849;DHT22;38714;53.180;5.812;2022-07-24T13:15:28;22.90;99.90
52849;DHT22;38714;53.180;5.812;2022-07-24T13:17:54;22.90;99.90
52849;DHT22;38714;53.180;5.812;2022-07-24T13:20:19;23.00;99.90
52849;DHT22;38714;53.180;5.812;2022-07-24T13:22:45;23.00;99.90
52849;DHT22;38714;53.180;5.812;2022-07-24T13:25:10;23.10;99.90
52849;DHT22;38714;53.180;5.812;2022-07-24T13:27:36;23.20;99.90
52849;DHT22;38714;53.180;5.812;2022-07-24T13:30:03;23.20;99.90
52849;DHT22;38714;53.180;5.812;2022-07-24T13:32:28;23.30;99.90
52849;DHT22;38714;53.180;5.812;2022-07-24T13:34:54;23.30;99.90
52849;DHT22;38714;53.180;5.812;2022-07-24T13:37:20;23.30;99.90
52849;DHT22;38714;53.180;5.812;2022-07-24T13:39:45;23.30;99.90
52849;DHT22;38714;53.180;5.812;2022-07-24T13:42:11;23.30;99.90
52849;DHT22;38714;53.180;5.812;2022-07-24T13:44:37;23.20;99.90
52849;DHT22;38714;53.180;5.812;2022-07-24T13:47:02;23.20;99.90
52849;DHT22;38714;53.180;5.812;2022-07-24T13:49:28;23.20;99.90
52849;DHT22;38714;53.180;5.812;2022-07-24T13:51:55;23.20;99.90
52849;DHT22;38714;53.180;5.812;2022-07-24T13:54:21;23.30;99.90
52849;DHT22;38714;53.180;5.812;2022-07-24T13:56:46;23.30;99.90
52849;DHT22;38714;53.180;5.812;2022-07-24T13:59:12;23.30;99.90
52849;DHT22;38714;53.180;5.812;2022-07-24T14:01:38;23.30;99.90
52849;DHT22;38714;53.180;5.812;2022-07-24T14:04:03;23.20;99.90
52849;DHT22;38714;53.180;5.812;2022-07-24T14:06:29;23.30;99.90
52849;DHT22;38714;53.180;5.812;2022-07-24T14:08:55;23.30;99.90
52849;DHT22;38714;53.180;5.812;2022-07-24T14:11:24;23.30;99.90
52849;DHT22;38714;53.180;5.812;2022-07-24T14:13:49;23.20;99.90
52849;DHT22;38714;53.180;5.812;2022-07-24T14:16:15;23.30;99.90
52849;DHT22;38714;53.180;5.812;2022-07-24T14:18:40;23.30;99.90
52849;DHT22;38714;53.180;5.812;2022-07-24T14:21:06;23.20;99.90
52849;DHT22;38714;53.180;5.812;2022-07-24T14:23:32;23.20;99.90
52849;DHT22;38714;53.180;5.812;2022-07-24T14:25:57;23.20;99.90
52849;DHT22;38714;53.180;5.812;2022-07-24T14:28:23;23.30;99.90
52849;DHT22;38714;53.180;5.812;2022-07-24T14:30:49;23.20;99.90
52849;DHT22;38714;53.180;5.812;2022-07-24T14:33:14;23.20;99.90
52849;DHT22;38714;53.180;5.812;2022-07-24T14:35:40;23.30;99.90
52849;DHT22;38714;53.180;5.812;2022-07-24T14:38:05;23.20;99.90
52849;DHT22;38714;53.180;5.812;2022-07-24T14:40:31;23.20;99.90
52849;DHT22;38714;53.180;5.812;2022-07-24T14:42:57;23.20;99.90
52849;DHT22;38714;53.180;5.812;2022-07-24T14:45:22;23.30;99.90
52849;DHT22;38714;53.180;5.812;2022-07-24T14:47:48;23.30;99.90
52849;DHT22;38714;53.180;5.812;2022-07-24T14:50:14;23.30;99.90
52849;DHT22;38714;53.180;5.812;2022-07-24T14:52:39;23.40;99.90
52849;DHT22;38714;53.180;5.812;2022-07-24T14:55:07;23.40;99.90
52849;DHT22;38714;53.180;5.812;2022-07-24T14:57:33;23.50;99.90
52849;DHT22;38714;53.180;5.812;2022-07-24T14:59:58;23.50;99.90
52849;DHT22;38714;53.180;5.812;2022-07-24T15:02:24;23.60;99.90
52849;DHT22;38714;53.180;5.812;2022-07-24T15:04:50;23.60;99.90
52849;DHT22;38714;53.180;5.812;2022-07-24T15:07:16;23.60;99.90
52849;DHT22;38714;53.180;5.812;2022-07-24T15:09:41;23.70;99.90
52849;DHT22;38714;53.180;5.812;2022-07-24T15:12:07;23.70;99.90
52849;DHT22;38714;53.180;5.812;2022-07-24T15:14:33;23.80;99.90
52849;DHT22;38714;53.180;5.812;2022-07-24T15:16:58;23.80;99.90
52849;DHT22;38714;53.180;5.812;2022-07-24T15:19:24;23.80;99.90
52849;DHT22;38714;53.180;5.812;2022-07-24T15:21:50;23.90;99.90
52849;DHT22;38714;53.180;5.812;2022-07-24T15:24:15;23.80;99.90
52849;DHT22;38714;53.180;5.812;2022-07-24T15:26:41;23.80;99.90
52849;DHT22;38714;53.180;5.812;2022-07-24T15:29:07;23.90;99.90
52849;DHT22;38714;53.180;5.812;2022-07-24T15:31:33;23.90;99.90
52849;DHT22;38714;53.180;5.812;2022-07-24T15:33:59;23.90;99.90
52849;DHT22;38714;53.180;5.812;2022-07-24T15:36:24;24.00;99.90
52849;DHT22;38714;53.180;5.812;2022-07-24T15:38:50;24.00;99.90
52849;DHT22;38714;53.180;5.812;2022-07-24T15:41:15;24.00;99.90
52849;DHT22;38714;53.180;5.812;2022-07-24T15:43:41;24.00;99.90
52849;DHT22;38714;53.180;5.812;2022-07-24T15:46:07;24.00;99.90
52849;DHT22;38714;53.180;5.812;2022-07-24T15:48:32;24.00;99.90
52849;DHT22;38714;53.180;5.812;2022-07-24T15:50:58;24.00;99.90
52849;DHT22;38714;53.180;5.812;2022-07-24T15:53:24;24.00;99.90
52849;DHT22;38714;53.180;5.812;2022-07-24T15:55:49;23.90;99.90